Terminal Aerodrome Forecast
Issued by NWS

Home | Current Version | Previous Version | Text Only | Print | Product List | Glossary On
Versions: 1 2 3 4 5 6 7 8 9 10 11 12 13 14 15 16 17 18 19 20 21 22 23 24 25 26 27 28 29 30 31 32 33 34 35
000
FTAK31 PANC 221904 AAA
TAFAVD
TAF AMD
PAVD 221904Z 2219/2318 VRB03KT 6SM -SN OVC030
      TEMPO 2219/2221 2SM -SN OVC012
     FM222200 VRB03KT 3SM -SHSN OVC007
     FM231000 00000KT P6SM -SN OVC012
     FM231500 00000KT P6SM BKN080
      AMD LTD TO CLD VIS AND WIND=

USA.gov is the U.S. government's official web portal to all federal, state and local government web resources and services.